sensor_id;sensor_type;location;lat;lon;timestamp;pressure;altitude;pressure_sealevel;temperature;humidity
2785;BME280;57944;48.722;9.316;2022-10-20T00:00:27;98389.28;;;11.41;100.00
2785;BME280;57944;48.722;9.316;2022-10-20T00:03:00;98389.38;;;11.26;100.00
2785;BME280;57944;48.722;9.316;2022-10-20T00:05:30;98379.59;;;11.30;100.00
2785;BME280;57944;48.722;9.316;2022-10-20T00:08:00;98378.56;;;11.24;100.00
2785;BME280;57944;48.722;9.316;2022-10-20T00:10:30;98380.13;;;11.25;100.00
2785;BME280;57944;48.722;9.316;2022-10-20T00:13:00;98382.91;;;11.24;100.00
2785;BME280;57944;48.722;9.316;2022-10-20T00:15:31;98384.81;;;11.15;100.00
2785;BME280;57944;48.722;9.316;2022-10-20T00:18:03;98381.22;;;11.09;100.00
2785;BME280;57944;48.722;9.316;2022-10-20T00:20:34;98382.63;;;11.12;100.00
2785;BME280;57944;48.722;9.316;2022-10-20T00:23:04;98372.06;;;10.93;100.00
2785;BME280;57944;48.722;9.316;2022-10-20T00:25:34;98370.97;;;11.03;100.00
2785;BME280;57944;48.722;9.316;2022-10-20T00:28:05;98376.06;;;11.03;100.00
2785;BME280;57944;48.722;9.316;2022-10-20T00:30:37;98370.16;;;11.02;100.00
2785;BME280;57944;48.722;9.316;2022-10-20T00:33:09;98366.56;;;10.90;100.00
2785;BME280;57944;48.722;9.316;2022-10-20T00:35:40;98365.78;;;10.89;100.00
2785;BME280;57944;48.722;9.316;2022-10-20T00:38:10;98364.66;;;10.99;100.00
2785;BME280;57944;48.722;9.316;2022-10-20T00:40:40;98357.78;;;10.99;100.00
2785;BME280;57944;48.722;9.316;2022-10-20T00:43:12;98362.25;;;10.90;100.00
2785;BME280;57944;48.722;9.316;2022-10-20T00:45:50;98360.34;;;10.99;100.00
2785;BME280;57944;48.722;9.316;2022-10-20T00:48:29;98365.56;;;10.91;100.00
2785;BME280;57944;48.722;9.316;2022-10-20T00:51:01;98372.19;;;10.85;100.00
2785;BME280;57944;48.722;9.316;2022-10-20T00:53:31;98363.72;;;10.78;100.00
2785;BME280;57944;48.722;9.316;2022-10-20T00:56:03;98357.81;;;10.78;100.00
2785;BME280;57944;48.722;9.316;2022-10-20T00:58:34;98358.72;;;10.91;100.00
2785;BME280;57944;48.722;9.316;2022-10-20T01:01:05;98352.41;;;10.87;100.00
2785;BME280;57944;48.722;9.316;2022-10-20T01:03:43;98341.88;;;10.97;100.00
2785;BME280;57944;48.722;9.316;2022-10-20T01:06:16;98334.59;;;10.94;100.00
2785;BME280;57944;48.722;9.316;2022-10-20T01:08:47;98328.88;;;10.92;100.00
2785;BME280;57944;48.722;9.316;2022-10-20T01:11:31;98323.09;;;11.05;100.00
2785;BME280;57944;48.722;9.316;2022-10-20T01:14:29;98319.91;;;10.96;100.00
2785;BME280;57944;48.722;9.316;2022-10-20T01:17:15;98309.88;;;10.94;100.00
2785;BME280;57944;48.722;9.316;2022-10-20T01:23:35;98303.56;;;10.84;100.00
2785;BME280;57944;48.722;9.316;2022-10-20T01:27:10;98301.66;;;10.92;100.00
2785;BME280;57944;48.722;9.316;2022-10-20T01:29:44;98308.94;;;10.95;100.00
2785;BME280;57944;48.722;9.316;2022-10-20T01:32:22;98304.22;;;10.99;100.00
2785;BME280;57944;48.722;9.316;2022-10-20T01:35:05;98309.31;;;10.92;100.00
2785;BME280;57944;48.722;9.316;2022-10-20T01:37:47;98311.75;;;10.79;100.00
2785;BME280;57944;48.722;9.316;2022-10-20T01:40:29;98297.44;;;10.78;100.00
2785;BME280;57944;48.722;9.316;2022-10-20T01:43:07;98300.44;;;10.88;100.00
2785;BME280;57944;48.722;9.316;2022-10-20T01:45:42;98293.44;;;10.97;100.00
2785;BME280;57944;48.722;9.316;2022-10-20T01:48:18;98283.72;;;11.14;100.00
2785;BME280;57944;48.722;9.316;2022-10-20T01:50:49;98279.28;;;10.94;100.00
2785;BME280;57944;48.722;9.316;2022-10-20T01:53:20;98282.81;;;10.93;100.00
2785;BME280;57944;48.722;9.316;2022-10-20T01:55:52;98268.13;;;10.95;100.00
2785;BME280;57944;48.722;9.316;2022-10-20T02:01:57;98281.06;;;10.66;100.00
2785;BME280;57944;48.722;9.316;2022-10-20T02:04:44;98272.06;;;10.70;100.00
2785;BME280;57944;48.722;9.316;2022-10-20T02:07:25;98261.66;;;11.00;100.00
2785;BME280;57944;48.722;9.316;2022-10-20T02:10:04;98268.84;;;11.17;100.00
2785;BME280;57944;48.722;9.316;2022-10-20T02:12:42;98264.41;;;10.98;100.00
2785;BME280;57944;48.722;9.316;2022-10-20T02:15:24;98257.06;;;10.82;100.00
2785;BME280;57944;48.722;9.316;2022-10-20T02:18:00;98250.00;;;10.84;100.00
2785;BME280;57944;48.722;9.316;2022-10-20T02:20:32;98248.31;;;10.69;100.00
2785;BME280;57944;48.722;9.316;2022-10-20T02:23:04;98253.75;;;10.60;100.00
2785;BME280;57944;48.722;9.316;2022-10-20T02:25:38;98255.81;;;10.49;100.00
2785;BME280;57944;48.722;9.316;2022-10-20T02:28:12;98254.38;;;10.40;100.00
2785;BME280;57944;48.722;9.316;2022-10-20T02:30:47;98244.94;;;10.34;100.00
2785;BME280;57944;48.722;9.316;2022-10-20T02:33:19;98250.63;;;10.36;100.00
2785;BME280;57944;48.722;9.316;2022-10-20T02:35:56;98252.75;;;10.33;100.00
2785;BME280;57944;48.722;9.316;2022-10-20T02:38:26;98248.03;;;10.29;100.00
2785;BME280;57944;48.722;9.316;2022-10-20T02:40:56;98242.78;;;10.16;100.00
2785;BME280;57944;48.722;9.316;2022-10-20T02:43:26;98241.59;;;10.12;100.00
2785;BME280;57944;48.722;9.316;2022-10-20T02:45:59;98234.97;;;10.18;100.00
2785;BME280;57944;48.722;9.316;2022-10-20T02:48:29;98235.63;;;10.05;100.00
2785;BME280;57944;48.722;9.316;2022-10-20T02:50:59;98232.03;;;9.99;100.00
2785;BME280;57944;48.722;9.316;2022-10-20T02:53:29;98227.31;;;9.96;100.00
2785;BME280;57944;48.722;9.316;2022-10-20T02:55:59;98220.91;;;10.00;100.00
2785;BME280;57944;48.722;9.316;2022-10-20T02:58:29;98227.44;;;10.10;100.00
2785;BME280;57944;48.722;9.316;2022-10-20T03:01:02;98228.47;;;10.15;100.00
2785;BME280;57944;48.722;9.316;2022-10-20T03:03:33;98231.69;;;10.45;100.00
2785;BME280;57944;48.722;9.316;2022-10-20T03:06:09;98234.25;;;10.45;100.00
2785;BME280;57944;48.722;9.316;2022-10-20T03:08:39;98237.88;;;10.36;100.00
2785;BME280;57944;48.722;9.316;2022-10-20T03:11:10;98236.84;;;10.31;100.00
2785;BME280;57944;48.722;9.316;2022-10-20T03:13:40;98228.63;;;10.28;100.00
2785;BME280;57944;48.722;9.316;2022-10-20T03:16:12;98227.19;;;10.26;100.00
2785;BME280;57944;48.722;9.316;2022-10-20T03:18:42;98236.72;;;9.96;100.00
2785;BME280;57944;48.722;9.316;2022-10-20T03:21:13;98234.13;;;9.89;100.00
2785;BME280;57944;48.722;9.316;2022-10-20T03:23:43;98231.63;;;9.96;100.00
2785;BME280;57944;48.722;9.316;2022-10-20T03:26:13;98239.75;;;9.84;100.00
2785;BME280;57944;48.722;9.316;2022-10-20T03:28:43;98235.81;;;9.82;100.00
2785;BME280;57944;48.722;9.316;2022-10-20T03:31:16;98234.16;;;9.74;100.00
2785;BME280;57944;48.722;9.316;2022-10-20T03:33:46;98239.25;;;9.74;100.00
2785;BME280;57944;48.722;9.316;2022-10-20T03:36:16;98234.28;;;9.88;100.00
2785;BME280;57944;48.722;9.316;2022-10-20T03:38:46;98237.72;;;9.80;100.00
2785;BME280;57944;48.722;9.316;2022-10-20T03:41:16;98245.97;;;9.82;100.00
2785;BME280;57944;48.722;9.316;2022-10-20T03:43:46;98237.38;;;9.83;100.00
2785;BME280;57944;48.722;9.316;2022-10-20T03:46:19;98230.34;;;9.85;100.00
2785;BME280;57944;48.722;9.316;2022-10-20T03:48:49;98238.19;;;9.83;100.00
2785;BME280;57944;48.722;9.316;2022-10-20T03:51:19;98223.84;;;9.82;100.00
2785;BME280;57944;48.722;9.316;2022-10-20T03:53:49;98222.72;;;9.85;100.00
2785;BME280;57944;48.722;9.316;2022-10-20T03:56:21;98226.81;;;9.86;100.00
2785;BME280;57944;48.722;9.316;2022-10-20T03:58:51;98218.47;;;9.92;100.00
2785;BME280;57944;48.722;9.316;2022-10-20T04:01:31;98218.94;;;10.24;100.00
2785;BME280;57944;48.722;9.316;2022-10-20T04:04:02;98209.03;;;10.29;100.00
2785;BME280;57944;48.722;9.316;2022-10-20T04:06:32;98208.63;;;10.54;100.00
2785;BME280;57944;48.722;9.316;2022-10-20T04:09:02;98208.69;;;10.67;100.00
2785;BME280;57944;48.722;9.316;2022-10-20T04:11:33;98205.06;;;10.76;100.00
2785;BME280;57944;48.722;9.316;2022-10-20T04:14:03;98210.81;;;10.91;100.00
2785;BME280;57944;48.722;9.316;2022-10-20T04:16:36;98196.53;;;10.97;100.00
2785;BME280;57944;48.722;9.316;2022-10-20T04:19:08;98193.81;;;11.05;100.00
2785;BME280;57944;48.722;9.316;2022-10-20T04:21:38;98196.59;;;11.17;100.00
2785;BME280;57944;48.722;9.316;2022-10-20T04:24:08;98201.94;;;11.22;100.00
2785;BME280;57944;48.722;9.316;2022-10-20T04:26:38;98197.97;;;11.13;100.00
2785;BME280;57944;48.722;9.316;2022-10-20T04:29:08;98183.63;;;11.05;100.00
2785;BME280;57944;48.722;9.316;2022-10-20T04:31:42;98192.03;;;10.99;100.00
2785;BME280;57944;48.722;9.316;2022-10-20T04:34:15;98190.03;;;10.94;100.00
2785;BME280;57944;48.722;9.316;2022-10-20T04:36:45;98195.88;;;10.88;100.00
2785;BME280;57944;48.722;9.316;2022-10-20T04:39:16;98198.66;;;10.87;100.00
2785;BME280;57944;48.722;9.316;2022-10-20T04:41:46;98192.97;;;10.91;100.00
2785;BME280;57944;48.722;9.316;2022-10-20T04:44:17;98191.16;;;10.85;100.00
2785;BME280;57944;48.722;9.316;2022-10-20T04:46:50;98191.41;;;10.90;100.00
2785;BME280;57944;48.722;9.316;2022-10-20T04:49:20;98188.84;;;10.90;100.00
2785;BME280;57944;48.722;9.316;2022-10-20T04:51:50;98179.25;;;10.92;100.00
2785;BME280;57944;48.722;9.316;2022-10-20T04:54:27;98180.03;;;10.93;100.00
2785;BME280;57944;48.722;9.316;2022-10-20T04:56:57;98173.16;;;10.87;100.00
2785;BME280;57944;48.722;9.316;2022-10-20T04:59:27;98181.81;;;10.92;100.00
2785;BME280;57944;48.722;9.316;2022-10-20T05:02:00;98180.97;;;10.85;100.00
2785;BME280;57944;48.722;9.316;2022-10-20T05:04:32;98189.16;;;10.74;100.00
2785;BME280;57944;48.722;9.316;2022-10-20T05:07:02;98177.63;;;10.78;100.00
2785;BME280;57944;48.722;9.316;2022-10-20T05:09:33;98171.63;;;10.99;100.00
2785;BME280;57944;48.722;9.316;2022-10-20T05:12:03;98174.78;;;11.01;100.00
2785;BME280;57944;48.722;9.316;2022-10-20T05:14:33;98173.63;;;11.04;100.00
2785;BME280;57944;48.722;9.316;2022-10-20T05:17:06;98170.06;;;11.05;100.00
2785;BME280;57944;48.722;9.316;2022-10-20T05:19:36;98166.69;;;10.91;100.00
2785;BME280;57944;48.722;9.316;2022-10-20T05:22:06;98160.78;;;10.90;100.00
2785;BME280;57944;48.722;9.316;2022-10-20T05:24:37;98164.16;;;10.98;100.00
2785;BME280;57944;48.722;9.316;2022-10-20T05:27:07;98157.94;;;11.07;100.00
2785;BME280;57944;48.722;9.316;2022-10-20T05:29:37;98151.25;;;11.06;100.00
2785;BME280;57944;48.722;9.316;2022-10-20T05:32:10;98145.53;;;10.97;100.00
2785;BME280;57944;48.722;9.316;2022-10-20T05:34:40;98141.38;;;10.89;100.00
2785;BME280;57944;48.722;9.316;2022-10-20T05:37:11;98139.56;;;10.83;100.00
2785;BME280;57944;48.722;9.316;2022-10-20T05:39:41;98137.25;;;10.88;100.00
2785;BME280;57944;48.722;9.316;2022-10-20T05:42:12;98128.81;;;10.88;100.00
2785;BME280;57944;48.722;9.316;2022-10-20T05:44:42;98122.38;;;10.99;100.00
2785;BME280;57944;48.722;9.316;2022-10-20T05:47:15;98119.44;;;10.95;100.00
2785;BME280;57944;48.722;9.316;2022-10-20T05:49:45;98133.94;;;10.94;100.00
2785;BME280;57944;48.722;9.316;2022-10-20T05:52:16;98139.25;;;11.00;100.00
2785;BME280;57944;48.722;9.316;2022-10-20T05:54:46;98135.59;;;11.15;100.00
2785;BME280;57944;48.722;9.316;2022-10-20T05:57:16;98134.63;;;11.23;100.00
2785;BME280;57944;48.722;9.316;2022-10-20T05:59:46;98130.94;;;11.32;100.00
2785;BME280;57944;48.722;9.316;2022-10-20T06:02:19;98131.75;;;11.53;100.00
2785;BME280;57944;48.722;9.316;2022-10-20T06:04:49;98121.19;;;11.62;100.00
2785;BME280;57944;48.722;9.316;2022-10-20T06:07:19;98123.16;;;12.00;100.00
2785;BME280;57944;48.722;9.316;2022-10-20T06:09:49;98116.88;;;12.03;100.00
2785;BME280;57944;48.722;9.316;2022-10-20T06:12:20;98125.94;;;11.99;100.00
2785;BME280;57944;48.722;9.316;2022-10-20T06:14:50;98134.19;;;11.88;100.00
2785;BME280;57944;48.722;9.316;2022-10-20T06:17:23;98131.84;;;11.93;100.00
2785;BME280;57944;48.722;9.316;2022-10-20T06:19:53;98126.72;;;11.99;100.00
2785;BME280;57944;48.722;9.316;2022-10-20T06:22:23;98129.88;;;12.01;100.00
2785;BME280;57944;48.722;9.316;2022-10-20T06:24:53;98136.34;;;11.91;100.00
2785;BME280;57944;48.722;9.316;2022-10-20T06:27:23;98131.03;;;12.05;100.00
2785;BME280;57944;48.722;9.316;2022-10-20T06:29:54;98138.72;;;12.12;100.00
2785;BME280;57944;48.722;9.316;2022-10-20T06:32:26;98134.56;;;12.24;100.00
2785;BME280;57944;48.722;9.316;2022-10-20T06:34:56;98141.06;;;12.14;100.00
2785;BME280;57944;48.722;9.316;2022-10-20T06:37:26;98136.13;;;12.25;100.00
2785;BME280;57944;48.722;9.316;2022-10-20T06:39:56;98133.97;;;12.29;100.00
2785;BME280;57944;48.722;9.316;2022-10-20T06:42:27;98139.84;;;12.23;100.00
2785;BME280;57944;48.722;9.316;2022-10-20T06:44:59;98135.94;;;12.20;100.00
2785;BME280;57944;48.722;9.316;2022-10-20T06:47:32;98132.59;;;12.20;100.00
2785;BME280;57944;48.722;9.316;2022-10-20T06:50:03;98142.81;;;12.20;100.00
2785;BME280;57944;48.722;9.316;2022-10-20T06:52:33;98161.31;;;12.15;100.00
2785;BME280;57944;48.722;9.316;2022-10-20T06:55:05;98155.78;;;12.25;100.00
2785;BME280;57944;48.722;9.316;2022-10-20T06:57:35;98154.41;;;12.36;100.00
2785;BME280;57944;48.722;9.316;2022-10-20T07:00:10;98150.25;;;12.48;100.00
2785;BME280;57944;48.722;9.316;2022-10-20T07:02:43;98145.09;;;12.61;100.00
2785;BME280;57944;48.722;9.316;2022-10-20T07:05:13;98151.75;;;12.75;100.00
2785;BME280;57944;48.722;9.316;2022-10-20T07:07:43;98156.47;;;12.85;100.00
2785;BME280;57944;48.722;9.316;2022-10-20T07:10:13;98151.94;;;12.87;100.00
2785;BME280;57944;48.722;9.316;2022-10-20T07:12:43;98147.78;;;12.86;100.00
2785;BME280;57944;48.722;9.316;2022-10-20T07:15:14;98145.78;;;13.02;100.00
2785;BME280;57944;48.722;9.316;2022-10-20T07:17:46;98151.69;;;13.02;100.00
2785;BME280;57944;48.722;9.316;2022-10-20T07:20:17;98150.03;;;13.14;100.00
2785;BME280;57944;48.722;9.316;2022-10-20T07:22:47;98149.19;;;13.40;100.00
2785;BME280;57944;48.722;9.316;2022-10-20T07:25:17;98159.78;;;13.44;100.00
2785;BME280;57944;48.722;9.316;2022-10-20T07:27:48;98167.56;;;13.62;100.00
2785;BME280;57944;48.722;9.316;2022-10-20T07:30:18;98165.91;;;13.75;100.00
2785;BME280;57944;48.722;9.316;2022-10-20T07:32:51;98159.53;;;13.84;100.00
2785;BME280;57944;48.722;9.316;2022-10-20T07:35:21;98156.72;;;13.92;100.00
2785;BME280;57944;48.722;9.316;2022-10-20T07:37:51;98137.38;;;13.96;100.00
2785;BME280;57944;48.722;9.316;2022-10-20T07:40:21;98137.72;;;14.00;100.00
2785;BME280;57944;48.722;9.316;2022-10-20T07:42:52;98128.16;;;14.14;100.00
2785;BME280;57944;48.722;9.316;2022-10-20T07:45:22;98144.66;;;14.18;100.00
2785;BME280;57944;48.722;9.316;2022-10-20T07:47:54;98145.34;;;14.31;100.00
2785;BME280;57944;48.722;9.316;2022-10-20T07:50:25;98137.63;;;14.57;100.00
2785;BME280;57944;48.722;9.316;2022-10-20T07:52:55;98140.06;;;14.88;100.00
2785;BME280;57944;48.722;9.316;2022-10-20T07:55:25;98143.47;;;15.31;100.00
2785;BME280;57944;48.722;9.316;2022-10-20T07:58:05;98142.31;;;15.57;100.00
2785;BME280;57944;48.722;9.316;2022-10-20T08:00:35;98145.19;;;15.91;100.00
2785;BME280;57944;48.722;9.316;2022-10-20T08:03:28;98143.22;;;16.16;100.00
2785;BME280;57944;48.722;9.316;2022-10-20T08:05:58;98132.94;;;16.16;100.00
2785;BME280;57944;48.722;9.316;2022-10-20T08:08:28;98136.81;;;16.07;100.00
2785;BME280;57944;48.722;9.316;2022-10-20T08:10:59;98135.50;;;16.16;100.00
2785;BME280;57944;48.722;9.316;2022-10-20T08:13:30;98135.16;;;16.13;100.00
2785;BME280;57944;48.722;9.316;2022-10-20T08:16:00;98131.91;;;16.17;100.00
2785;BME280;57944;48.722;9.316;2022-10-20T08:18:37;98140.53;;;16.11;100.00
2785;BME280;57944;48.722;9.316;2022-10-20T08:21:18;98139.53;;;16.12;100.00
2785;BME280;57944;48.722;9.316;2022-10-20T08:23:49;98136.06;;;16.06;100.00
2785;BME280;57944;48.722;9.316;2022-10-20T08:26:22;98130.38;;;16.16;100.00
2785;BME280;57944;48.722;9.316;2022-10-20T08:28:54;98129.69;;;16.21;100.00
2785;BME280;57944;48.722;9.316;2022-10-20T08:31:24;98130.22;;;16.46;100.00
2785;BME280;57944;48.722;9.316;2022-10-20T08:33:57;98134.78;;;16.80;100.00
2785;BME280;57944;48.722;9.316;2022-10-20T08:36:27;98123.81;;;16.72;100.00
2785;BME280;57944;48.722;9.316;2022-10-20T08:38:58;98113.41;;;16.67;100.00
2785;BME280;57944;48.722;9.316;2022-10-20T08:41:36;98110.16;;;16.72;100.00
2785;BME280;57944;48.722;9.316;2022-10-20T08:44:31;98102.75;;;16.75;100.00
2785;BME280;57944;48.722;9.316;2022-10-20T08:47:11;98108.78;;;16.93;100.00
2785;BME280;57944;48.722;9.316;2022-10-20T08:49:46;98130.72;;;17.41;100.00
2785;BME280;57944;48.722;9.316;2022-10-20T08:52:17;98132.19;;;17.82;100.00
2785;BME280;57944;48.722;9.316;2022-10-20T08:54:54;98137.03;;;18.13;100.00
2785;BME280;57944;48.722;9.316;2022-10-20T08:57:28;98138.19;;;18.22;100.00
2785;BME280;57944;48.722;9.316;2022-10-20T09:00:14;98142.13;;;18.46;100.00
2785;BME280;57944;48.722;9.316;2022-10-20T09:02:47;98134.00;;;18.77;100.00
2785;BME280;57944;48.722;9.316;2022-10-20T09:05:23;98140.88;;;18.71;100.00
2785;BME280;57944;48.722;9.316;2022-10-20T09:07:56;98146.53;;;18.68;100.00
2785;BME280;57944;48.722;9.316;2022-10-20T09:10:32;98143.00;;;18.74;100.00
2785;BME280;57944;48.722;9.316;2022-10-20T09:13:10;98145.13;;;19.26;100.00
2785;BME280;57944;48.722;9.316;2022-10-20T09:15:43;98148.34;;;19.66;100.00
2785;BME280;57944;48.722;9.316;2022-10-20T09:18:15;98135.75;;;19.74;100.00
2785;BME280;57944;48.722;9.316;2022-10-20T09:20:53;98147.09;;;19.68;100.00
2785;BME280;57944;48.722;9.316;2022-10-20T09:23:30;98144.53;;;19.73;98.68
2785;BME280;57944;48.722;9.316;2022-10-20T09:26:12;98138.69;;;19.56;98.77
2785;BME280;57944;48.722;9.316;2022-10-20T09:29:06;98136.63;;;19.04;100.00
2785;BME280;57944;48.722;9.316;2022-10-20T09:31:43;98132.44;;;18.97;100.00
2785;BME280;57944;48.722;9.316;2022-10-20T09:34:23;98125.50;;;18.76;100.00
2785;BME280;57944;48.722;9.316;2022-10-20T09:37:03;98144.03;;;18.95;100.00
2785;BME280;57944;48.722;9.316;2022-10-20T09:39:49;98143.75;;;19.18;100.00
2785;BME280;57944;48.722;9.316;2022-10-20T09:42:28;98135.38;;;19.06;100.00
2785;BME280;57944;48.722;9.316;2022-10-20T09:45:05;98147.66;;;19.21;100.00
2785;BME280;57944;48.722;9.316;2022-10-20T09:47:43;98138.81;;;19.39;100.00
2785;BME280;57944;48.722;9.316;2022-10-20T09:50:21;98143.38;;;19.59;100.00
2785;BME280;57944;48.722;9.316;2022-10-20T09:52:56;98151.06;;;19.54;98.31
2785;BME280;57944;48.722;9.316;2022-10-20T09:55:30;98142.06;;;19.29;99.15
2785;BME280;57944;48.722;9.316;2022-10-20T09:58:04;98156.69;;;19.46;98.62
2785;BME280;57944;48.722;9.316;2022-10-20T10:00:40;98161.03;;;19.67;99.10
2785;BME280;57944;48.722;9.316;2022-10-20T10:03:17;98148.44;;;19.49;98.63
2785;BME280;57944;48.722;9.316;2022-10-20T10:05:51;98142.69;;;19.41;100.00
2785;BME280;57944;48.722;9.316;2022-10-20T10:08:26;98151.47;;;19.40;100.00
2785;BME280;57944;48.722;9.316;2022-10-20T10:11:01;98148.13;;;19.72;98.98
2785;BME280;57944;48.722;9.316;2022-10-20T10:13:42;98146.56;;;20.08;95.75
2785;BME280;57944;48.722;9.316;2022-10-20T10:16:16;98155.03;;;20.31;93.64
2785;BME280;57944;48.722;9.316;2022-10-20T10:18:56;98161.56;;;20.49;91.84
2785;BME280;57944;48.722;9.316;2022-10-20T10:21:29;98159.13;;;20.74;89.79
2785;BME280;57944;48.722;9.316;2022-10-20T10:24:36;98160.19;;;20.84;88.14
2785;BME280;57944;48.722;9.316;2022-10-20T10:27:22;98153.41;;;20.72;89.51
2785;BME280;57944;48.722;9.316;2022-10-20T10:29:52;98137.63;;;20.74;87.82
2785;BME280;57944;48.722;9.316;2022-10-20T10:32:25;98146.75;;;20.87;88.88
2785;BME280;57944;48.722;9.316;2022-10-20T10:35:10;98143.16;;;21.08;86.25
2785;BME280;57944;48.722;9.316;2022-10-20T10:37:43;98140.06;;;21.16;86.25
2785;BME280;57944;48.722;9.316;2022-10-20T10:40:20;98145.34;;;21.37;83.31
2785;BME280;57944;48.722;9.316;2022-10-20T10:43:07;98147.94;;;21.57;83.57
2785;BME280;57944;48.722;9.316;2022-10-20T10:45:49;98155.47;;;21.84;79.81
2785;BME280;57944;48.722;9.316;2022-10-20T10:48:51;98161.94;;;21.72;79.20
2785;BME280;57944;48.722;9.316;2022-10-20T10:51:41;98163.50;;;21.78;80.23
2785;BME280;57944;48.722;9.316;2022-10-20T10:54:36;98162.47;;;21.69;80.93
2785;BME280;57944;48.722;9.316;2022-10-20T10:57:25;98160.41;;;21.71;78.85
2785;BME280;57944;48.722;9.316;2022-10-20T11:00:05;98164.28;;;21.89;79.91
2785;BME280;57944;48.722;9.316;2022-10-20T11:02:58;98151.53;;;21.97;77.75
2785;BME280;57944;48.722;9.316;2022-10-20T11:06:02;98138.59;;;21.51;81.26
2785;BME280;57944;48.722;9.316;2022-10-20T11:09:04;98126.31;;;21.11;81.69
2785;BME280;57944;48.722;9.316;2022-10-20T11:11:57;98111.25;;;20.87;84.53
2785;BME280;57944;48.722;9.316;2022-10-20T11:14:46;98120.28;;;20.74;87.38
2785;BME280;57944;48.722;9.316;2022-10-20T11:17:40;98114.53;;;20.57;89.46
2785;BME280;57944;48.722;9.316;2022-10-20T11:20:36;98107.78;;;20.61;89.83
2785;BME280;57944;48.722;9.316;2022-10-20T11:23:52;98103.47;;;20.82;90.45
2785;BME280;57944;48.722;9.316;2022-10-20T11:26:30;98109.44;;;20.88;87.03
2785;BME280;57944;48.722;9.316;2022-10-20T11:29:08;98100.91;;;21.03;87.25
2785;BME280;57944;48.722;9.316;2022-10-20T11:31:50;98097.53;;;21.02;87.80
2785;BME280;57944;48.722;9.316;2022-10-20T11:34:29;98102.25;;;21.36;85.03
2785;BME280;57944;48.722;9.316;2022-10-20T11:37:11;98110.84;;;21.62;82.83
2785;BME280;57944;48.722;9.316;2022-10-20T11:39:57;98096.06;;;21.52;81.60
2785;BME280;57944;48.722;9.316;2022-10-20T11:42:42;98091.88;;;21.36;83.42
2785;BME280;57944;48.722;9.316;2022-10-20T11:45:34;98096.00;;;21.11;84.26
2785;BME280;57944;48.722;9.316;2022-10-20T11:48:19;98094.88;;;20.66;88.13
2785;BME280;57944;48.722;9.316;2022-10-20T11:51:08;98087.66;;;20.84;86.51
2785;BME280;57944;48.722;9.316;2022-10-20T11:54:31;98075.91;;;20.56;89.61
2785;BME280;57944;48.722;9.316;2022-10-20T11:57:16;98088.53;;;20.47;90.83
2785;BME280;57944;48.722;9.316;2022-10-20T12:00:15;98076.97;;;20.60;92.21
2785;BME280;57944;48.722;9.316;2022-10-20T12:03:37;98071.34;;;20.83;87.47
2785;BME280;57944;48.722;9.316;2022-10-20T12:06:40;98066.13;;;20.78;87.94
2785;BME280;57944;48.722;9.316;2022-10-20T12:09:48;98060.94;;;20.68;88.67
2785;BME280;57944;48.722;9.316;2022-10-20T12:12:30;98052.63;;;20.56;92.77
2785;BME280;57944;48.722;9.316;2022-10-20T12:15:20;98063.31;;;20.17;93.62
2785;BME280;57944;48.722;9.316;2022-10-20T12:17:52;98052.13;;;20.01;95.21
2785;BME280;57944;48.722;9.316;2022-10-20T12:21:03;98060.38;;;19.60;100.00
2785;BME280;57944;48.722;9.316;2022-10-20T12:23:53;98049.38;;;19.11;100.00
2785;BME280;57944;48.722;9.316;2022-10-20T12:30:00;98027.56;;;18.47;100.00
2785;BME280;57944;48.722;9.316;2022-10-20T12:32:51;98032.66;;;18.42;100.00
2785;BME280;57944;48.722;9.316;2022-10-20T12:38:33;98022.50;;;18.58;100.00
2785;BME280;57944;48.722;9.316;2022-10-20T12:41:03;98025.56;;;18.77;100.00
2785;BME280;57944;48.722;9.316;2022-10-20T12:43:47;98026.53;;;18.97;100.00
2785;BME280;57944;48.722;9.316;2022-10-20T12:46:25;98028.91;;;19.04;100.00
2785;BME280;57944;48.722;9.316;2022-10-20T12:49:02;98011.22;;;19.18;100.00
2785;BME280;57944;48.722;9.316;2022-10-20T12:51:47;98022.50;;;19.07;100.00
2785;BME280;57944;48.722;9.316;2022-10-20T12:54:28;98027.69;;;19.12;100.00
2785;BME280;57944;48.722;9.316;2022-10-20T12:57:04;98033.91;;;19.16;100.00
2785;BME280;57944;48.722;9.316;2022-10-20T12:59:38;98041.28;;;19.02;100.00
2785;BME280;57944;48.722;9.316;2022-10-20T13:02:31;98033.09;;;18.78;100.00
2785;BME280;57944;48.722;9.316;2022-10-20T13:05:42;98032.59;;;18.59;100.00
2785;BME280;57944;48.722;9.316;2022-10-20T13:08:28;98021.22;;;18.60;100.00
2785;BME280;57944;48.722;9.316;2022-10-20T13:11:42;98011.97;;;18.37;100.00
2785;BME280;57944;48.722;9.316;2022-10-20T13:17:48;97983.56;;;18.37;100.00
2785;BME280;57944;48.722;9.316;2022-10-20T13:20:28;97989.44;;;18.54;100.00
2785;BME280;57944;48.722;9.316;2022-10-20T13:23:10;97994.69;;;18.65;100.00
2785;BME280;57944;48.722;9.316;2022-10-20T13:25:44;97994.59;;;18.54;100.00
2785;BME280;57944;48.722;9.316;2022-10-20T13:28:22;97978.63;;;18.58;100.00
2785;BME280;57944;48.722;9.316;2022-10-20T13:31:15;97999.91;;;18.97;100.00
2785;BME280;57944;48.722;9.316;2022-10-20T13:33:59;97998.50;;;19.11;100.00
2785;BME280;57944;48.722;9.316;2022-10-20T13:36:50;97985.91;;;19.20;100.00
2785;BME280;57944;48.722;9.316;2022-10-20T13:39:34;97972.81;;;19.32;100.00
2785;BME280;57944;48.722;9.316;2022-10-20T13:42:19;97961.47;;;19.38;100.00
2785;BME280;57944;48.722;9.316;2022-10-20T13:45:06;97968.53;;;19.48;100.00
2785;BME280;57944;48.722;9.316;2022-10-20T13:47:47;97970.88;;;19.54;100.00
2785;BME280;57944;48.722;9.316;2022-10-20T13:50:22;97967.88;;;19.68;100.00
2785;BME280;57944;48.722;9.316;2022-10-20T13:53:02;97966.56;;;19.65;100.00
2785;BME280;57944;48.722;9.316;2022-10-20T13:55:56;97966.13;;;19.78;100.00
2785;BME280;57944;48.722;9.316;2022-10-20T13:58:28;97974.50;;;19.58;100.00
2785;BME280;57944;48.722;9.316;2022-10-20T14:01:05;97992.22;;;19.34;100.00
2785;BME280;57944;48.722;9.316;2022-10-20T14:03:42;97993.97;;;19.66;100.00
2785;BME280;57944;48.722;9.316;2022-10-20T14:06:33;97991.00;;;19.84;100.00
2785;BME280;57944;48.722;9.316;2022-10-20T14:09:17;97994.56;;;19.73;100.00